createdAt,value
2023-11-23T00:02:17.554Z,59.66
2023-11-23T00:07:23.333Z,60.04
2023-11-23T00:12:29.495Z,59.38
2023-11-23T00:17:35.475Z,60.00
2023-11-23T00:22:41.119Z,60.01
2023-11-23T00:27:46.800Z,59.54
2023-11-23T00:32:52.397Z,59.42
2023-11-23T00:37:57.878Z,59.17
2023-11-23T00:43:03.461Z,59.45
2023-11-23T00:48:09.048Z,58.91
2023-11-23T00:53:14.946Z,59.75
2023-11-23T00:58:20.392Z,59.50
2023-11-23T01:03:26.494Z,59.02
2023-11-23T01:08:32.173Z,58.65
2023-11-23T01:13:37.928Z,58.50
2023-11-23T01:18:43.947Z,58.60
2023-11-23T01:23:49.610Z,59.35
2023-11-23T01:28:55.296Z,59.13
2023-11-23T01:34:01.878Z,59.23
2023-11-23T01:39:08.984Z,59.66
2023-11-23T01:44:14.501Z,59.33
2023-11-23T01:49:21.856Z,59.07
2023-11-23T01:54:27.833Z,59.62
2023-11-23T01:59:33.882Z,59.01
2023-11-23T02:04:39.973Z,59.14
2023-11-23T02:09:45.726Z,59.94
2023-11-23T02:14:55.154Z,60.23
2023-11-23T02:20:00.965Z,60.50
2023-11-23T02:25:08.560Z,59.62
2023-11-23T02:30:14.816Z,60.25
2023-11-23T02:35:21.199Z,60.37
2023-11-23T02:40:27.184Z,61.72
2023-11-23T02:45:32.808Z,61.38
2023-11-23T02:50:38.474Z,61.47
2023-11-23T02:55:44.062Z,61.78
2023-11-23T03:00:55.612Z,62.34
2023-11-23T03:06:02.236Z,61.68
2023-11-23T03:11:08.442Z,62.18
2023-11-23T03:16:14.251Z,61.93
2023-11-23T03:21:21.122Z,62.53
2023-11-23T03:26:26.808Z,62.62
2023-11-23T03:31:32.803Z,62.22
2023-11-23T03:36:39.456Z,62.84
2023-11-23T03:41:44.989Z,62.03
2023-11-23T03:46:50.750Z,61.89
2023-11-23T03:51:56.414Z,62.14
2023-11-23T03:57:02.713Z,61.39
2023-11-23T04:02:08.938Z,61.82
2023-11-23T04:07:14.313Z,61.27
2023-11-23T04:12:19.457Z,61.15
2023-11-23T04:17:25.110Z,61.30
2023-11-23T04:22:30.731Z,61.31
2023-11-23T04:27:36.165Z,60.64
2023-11-23T04:32:41.335Z,60.99
2023-11-23T04:37:46.941Z,61.16
2023-11-23T04:42:52.441Z,61.34
2023-11-23T04:47:56.785Z,60.80
2023-11-23T04:53:01.083Z,61.06
2023-11-23T04:58:05.348Z,60.74
2023-11-23T05:03:10.184Z,60.31
2023-11-23T05:08:17.389Z,60.61
2023-11-23T05:13:21.681Z,61.30
2023-11-23T05:18:26.563Z,61.08
2023-11-23T05:23:33.873Z,60.83
2023-11-23T05:28:39.295Z,60.10
2023-11-23T05:33:44.414Z,60.31
2023-11-23T05:38:48.909Z,59.73
2023-11-23T05:44:00.536Z,60.11
2023-11-23T05:49:05.573Z,59.74
2023-11-23T05:54:10.560Z,59.50
2023-11-23T05:59:25.019Z,60.44
2023-11-23T06:04:31.819Z,60.16
2023-11-23T06:09:41.105Z,59.64
2023-11-23T06:14:45.325Z,59.96
2023-11-23T06:19:50.117Z,59.59
2023-11-23T06:24:54.834Z,59.84
2023-11-23T06:29:59.413Z,59.11
2023-11-23T06:35:03.666Z,58.25
2023-11-23T06:40:08.680Z,58.29
2023-11-23T06:45:15.413Z,57.71
2023-11-23T06:50:22.638Z,57.57
2023-11-23T06:55:26.921Z,57.34
2023-11-23T07:00:31.291Z,56.60
2023-11-23T07:05:35.438Z,55.89
2023-11-23T07:10:42.860Z,55.23
2023-11-23T07:15:48.537Z,54.48
2023-11-23T07:20:55.124Z,53.50
2023-11-23T07:25:59.430Z,53.45
2023-11-23T07:31:03.553Z,53.05
2023-11-23T07:36:08.465Z,53.27
2023-11-23T07:41:13.291Z,52.47
2023-11-23T07:46:17.549Z,53.03
2023-11-23T07:51:22.039Z,52.45
2023-11-23T07:56:26.917Z,52.71
2023-11-23T08:01:31.172Z,51.83
2023-11-23T08:06:35.495Z,51.65
2023-11-23T08:11:39.735Z,51.25
2023-11-23T08:16:43.953Z,50.82
2023-11-23T08:21:50.596Z,51.34
2023-11-23T08:26:55.223Z,50.66
2023-11-23T08:31:59.967Z,51.11
2023-11-23T08:37:04.855Z,51.39
2023-11-23T08:42:09.571Z,51.75
2023-11-23T08:47:16.850Z,50.99
2023-11-23T08:52:26.852Z,51.92
2023-11-23T08:57:34.025Z,51.06
2023-11-23T09:02:42.148Z,52.12
2023-11-23T09:07:46.413Z,51.34
2023-11-23T09:12:51.178Z,51.80
2023-11-23T09:18:00.726Z,51.41
2023-11-23T09:23:10.354Z,51.87
2023-11-23T09:28:15.148Z,51.48
2023-11-23T09:33:21.276Z,52.48
2023-11-23T09:38:26.831Z,52.13
2023-11-23T09:43:33.930Z,52.17
2023-11-23T09:48:41.002Z,52.35
2023-11-23T09:53:45.646Z,52.13
2023-11-23T09:58:50.561Z,52.56
2023-11-23T10:03:58.117Z,52.09
2023-11-23T10:09:02.522Z,52.64
2023-11-23T10:14:06.901Z,52.23
2023-11-23T10:19:22.812Z,51.84
2023-11-23T10:24:28.036Z,51.93
2023-11-23T10:29:34.223Z,52.10
2023-11-23T10:34:43.600Z,51.58
2023-11-23T10:39:48.128Z,51.82
2023-11-23T10:44:55.119Z,52.12
2023-11-23T10:50:02.099Z,51.48
2023-11-23T10:55:07.883Z,51.54
2023-11-23T11:00:26.938Z,51.84
2023-11-23T11:05:36.623Z,52.14
2023-11-23T11:10:43.836Z,52.22
2023-11-23T11:15:57.864Z,52.52
2023-11-23T11:21:15.628Z,51.62
2023-11-23T11:26:26.029Z,52.67
2023-11-23T11:31:38.295Z,52.01
2023-11-23T11:36:43.585Z,52.43
2023-11-23T11:41:49.285Z,52.39
2023-11-23T11:46:54.281Z,52.58
2023-11-23T11:51:58.888Z,53.04
2023-11-23T11:57:04.435Z,52.96
2023-11-23T12:02:11.806Z,52.17
2023-11-23T12:07:19.091Z,52.00
2023-11-23T12:12:23.749Z,52.43
2023-11-23T12:17:28.087Z,52.10
2023-11-23T12:22:32.781Z,52.10
2023-11-23T12:27:39.841Z,52.88
2023-11-23T12:32:44.245Z,52.75
2023-11-23T12:37:48.627Z,52.99
2023-11-23T12:42:52.884Z,53.19
2023-11-23T12:47:57.160Z,53.43
2023-11-23T12:53:13.581Z,53.67
2023-11-23T12:58:20.517Z,53.16
2023-11-23T13:03:25.218Z,52.78
2023-11-23T13:08:29.528Z,52.61
2023-11-23T13:13:33.947Z,52.82
2023-11-23T13:18:53.852Z,52.17
2023-11-23T13:24:02.457Z,52.71
2023-11-23T13:29:07.996Z,52.87
2023-11-23T13:34:12.391Z,53.15
2023-11-23T13:39:23.585Z,53.32
2023-11-23T13:44:29.105Z,52.23
2023-11-23T13:49:34.697Z,51.68
2023-11-23T13:54:40.437Z,50.56
2023-11-23T13:59:46.200Z,49.92
2023-11-23T14:04:51.791Z,50.04
2023-11-23T14:09:57.196Z,49.68
2023-11-23T14:15:04.934Z,48.99
2023-11-23T14:20:14.229Z,49.01
2023-11-23T14:25:22.336Z,49.75
2023-11-23T14:30:29.204Z,50.04
2023-11-23T14:35:34.770Z,50.41
2023-11-23T14:40:40.282Z,51.07
2023-11-23T14:45:46.762Z,51.40
2023-11-23T14:50:52.522Z,51.74
2023-11-23T14:55:59.448Z,51.99
2023-11-23T15:01:05.035Z,51.21
2023-11-23T15:06:10.797Z,51.46
2023-11-23T15:11:16.703Z,49.79
2023-11-23T15:16:22.463Z,49.47
2023-11-23T15:21:30.232Z,49.75
2023-11-23T15:26:36.054Z,49.39
2023-11-23T15:31:42.149Z,49.36
2023-11-23T15:36:47.714Z,49.81
2023-11-23T15:41:53.230Z,49.63
2023-11-23T15:46:58.729Z,48.87
2023-11-23T15:52:04.687Z,49.76
2023-11-23T15:57:10.886Z,49.95
2023-11-23T16:02:16.411Z,49.80
2023-11-23T16:07:21.865Z,50.03
2023-11-23T16:12:27.224Z,49.58
2023-11-23T16:17:33.585Z,50.16
2023-11-23T16:22:39.078Z,50.36
2023-11-23T16:27:44.803Z,50.96
2023-11-23T16:32:50.512Z,51.52
2023-11-23T16:37:57.359Z,51.55
2023-11-23T16:43:06.109Z,52.22
2023-11-23T16:48:11.867Z,52.27
2023-11-23T16:53:17.770Z,52.36
2023-11-23T16:58:23.166Z,52.07
2023-11-23T17:03:28.963Z,51.78
2023-11-23T17:08:35.521Z,51.80
2023-11-23T17:13:41.227Z,51.57
2023-11-23T17:18:46.862Z,51.39
2023-11-23T17:23:52.492Z,51.14
2023-11-23T17:28:58.673Z,50.65
2023-11-23T17:34:04.289Z,51.15
2023-11-23T17:39:18.769Z,50.75
2023-11-23T17:44:25.729Z,50.82
2023-11-23T17:49:32.607Z,50.51
2023-11-23T17:54:38.264Z,50.73
2023-11-23T17:59:48.177Z,51.04
2023-11-23T18:04:59.842Z,51.09
2023-11-23T18:10:07.386Z,51.30
2023-11-23T18:15:13.732Z,51.45
2023-11-23T18:20:21.240Z,51.14
2023-11-23T18:25:27.167Z,51.79
2023-11-23T18:30:32.963Z,51.92
2023-11-23T18:35:38.523Z,51.94
2023-11-23T18:40:44.341Z,50.99
2023-11-23T18:45:50.721Z,51.44
2023-11-23T18:50:56.394Z,51.09
2023-11-23T18:56:06.779Z,52.15
2023-11-23T19:01:12.692Z,51.13
2023-11-23T19:06:18.759Z,51.09
2023-11-23T19:11:27.465Z,51.44
2023-11-23T19:16:33.133Z,51.01
2023-11-23T19:21:39.068Z,50.84
2023-11-23T19:26:44.984Z,50.33
2023-11-23T19:31:51.401Z,51.15
2023-11-23T19:36:57.542Z,51.70
2023-11-23T19:42:05.451Z,52.04
2023-11-23T19:47:11.979Z,51.67
2023-11-23T19:52:25.723Z,52.00
2023-11-23T19:57:31.204Z,51.66
2023-11-23T20:02:37.994Z,51.46
2023-11-23T20:07:43.694Z,51.79
2023-11-23T20:12:49.876Z,50.11
2023-11-23T20:17:55.474Z,50.26
2023-11-23T20:23:03.012Z,50.71
2023-11-23T20:28:14.050Z,50.72
2023-11-23T20:33:20.632Z,50.95
2023-11-23T20:38:26.419Z,49.96
2023-11-23T20:43:32.096Z,50.41
2023-11-23T20:48:37.996Z,51.07
2023-11-23T20:53:44.376Z,50.50
2023-11-23T20:58:54.975Z,51.50
2023-11-23T21:04:01.019Z,50.06
2023-11-23T21:09:10.075Z,50.73
2023-11-23T21:14:16.128Z,49.89
2023-11-23T21:19:22.082Z,50.12
2023-11-23T21:24:27.759Z,49.75
2023-11-23T21:29:33.347Z,49.63
2023-11-23T21:34:38.940Z,49.51
2023-11-23T21:39:45.034Z,49.99
2023-11-23T21:44:51.344Z,48.79
2023-11-23T21:49:57.432Z,49.59
2023-11-23T21:55:04.520Z,49.94
2023-11-23T22:00:11.050Z,49.87
2023-11-23T22:05:16.615Z,49.13
2023-11-23T22:10:23.762Z,49.37
2023-11-23T22:15:29.379Z,49.85
2023-11-23T22:20:35.329Z,49.96
2023-11-23T22:25:42.978Z,49.86
2023-11-23T22:30:49.065Z,51.24
2023-11-23T22:35:54.874Z,51.48
2023-11-23T22:41:01.141Z,51.90
2023-11-23T22:46:09.459Z,53.01
2023-11-23T22:51:16.382Z,53.05
2023-11-23T22:56:21.883Z,53.04
2023-11-23T23:01:29.400Z,53.64
2023-11-23T23:06:35.026Z,53.07
2023-11-23T23:11:40.837Z,53.15
2023-11-23T23:16:46.650Z,53.71
2023-11-23T23:21:52.963Z,54.22
2023-11-23T23:26:58.592Z,55.36
2023-11-23T23:32:04.365Z,56.87
2023-11-23T23:37:09.930Z,57.45
2023-11-23T23:42:15.460Z,57.82
2023-11-23T23:47:21.003Z,58.04
2023-11-23T23:52:26.635Z,57.67
2023-11-23T23:57:32.129Z,57.13
